sensor_id;sensor_type;location;lat;lon;timestamp;pressure;altitude;pressure_sealevel;temperature;humidity
41102;BME280;26845;50.190;19.178;2023-04-24T00:01:01;97817.36;;;10.63;56.19
41102;BME280;26845;50.190;19.178;2023-04-24T00:04:07;97812.42;;;10.54;56.35
41102;BME280;26845;50.190;19.178;2023-04-24T00:07:12;97812.41;;;10.47;56.51
41102;BME280;26845;50.190;19.178;2023-04-24T00:10:18;97809.56;;;10.41;56.55
41102;BME280;26845;50.190;19.178;2023-04-24T00:13:24;97807.23;;;10.32;56.91
41102;BME280;26845;50.190;19.178;2023-04-24T00:16:30;97805.46;;;10.21;57.03
41102;BME280;26845;50.190;19.178;2023-04-24T00:19:35;97801.29;;;10.15;57.32
41102;BME280;26845;50.190;19.178;2023-04-24T00:22:41;97802.24;;;10.11;57.51
41102;BME280;26845;50.190;19.178;2023-04-24T00:25:47;97792.02;;;10.05;57.73
41102;BME280;26845;50.190;19.178;2023-04-24T00:28:53;97794.30;;;9.90;57.80
41102;BME280;26845;50.190;19.178;2023-04-24T00:31:59;97794.91;;;9.70;58.05
41102;BME280;26845;50.190;19.178;2023-04-24T00:35:05;97787.76;;;9.55;58.47
41102;BME280;26845;50.190;19.178;2023-04-24T00:38:11;97786.52;;;9.56;58.63
41102;BME280;26845;50.190;19.178;2023-04-24T00:41:16;97783.70;;;9.51;58.60
41102;BME280;26845;50.190;19.178;2023-04-24T00:44:22;97774.05;;;9.42;58.94
41102;BME280;26845;50.190;19.178;2023-04-24T00:47:28;97776.33;;;9.45;59.24
41102;BME280;26845;50.190;19.178;2023-04-24T00:50:35;97769.72;;;9.54;59.39
41102;BME280;26845;50.190;19.178;2023-04-24T00:53:40;97766.45;;;9.66;59.32
41102;BME280;26845;50.190;19.178;2023-04-24T00:56:46;97764.11;;;9.75;59.38
41102;BME280;26845;50.190;19.178;2023-04-24T00:59:52;97761.98;;;9.81;59.48
41102;BME280;26845;50.190;19.178;2023-04-24T01:02:57;97760.86;;;9.85;59.54
41102;BME280;26845;50.190;19.178;2023-04-24T01:06:03;97761.87;;;9.91;59.53
41102;BME280;26845;50.190;19.178;2023-04-24T01:09:10;97756.52;;;9.94;59.52
41102;BME280;26845;50.190;19.178;2023-04-24T01:12:15;97752.50;;;10.01;59.72
41102;BME280;26845;50.190;19.178;2023-04-24T01:15:21;97744.30;;;10.07;59.84
41102;BME280;26845;50.190;19.178;2023-04-24T01:18:27;97749.96;;;10.11;59.85
41102;BME280;26845;50.190;19.178;2023-04-24T01:21:34;97747.89;;;10.16;59.83
41102;BME280;26845;50.190;19.178;2023-04-24T01:24:39;97746.75;;;10.15;59.88
41102;BME280;26845;50.190;19.178;2023-04-24T01:27:45;97744.93;;;10.11;59.90
41102;BME280;26845;50.190;19.178;2023-04-24T01:30:50;97738.75;;;10.04;60.04
41102;BME280;26845;50.190;19.178;2023-04-24T01:33:56;97737.95;;;10.06;60.32
41102;BME280;26845;50.190;19.178;2023-04-24T01:37:02;97736.38;;;10.09;60.18
41102;BME280;26845;50.190;19.178;2023-04-24T01:40:08;97734.23;;;10.02;60.15
41102;BME280;26845;50.190;19.178;2023-04-24T01:43:14;97730.06;;;9.99;60.30
41102;BME280;26845;50.190;19.178;2023-04-24T01:46:19;97724.88;;;10.00;60.35
41102;BME280;26845;50.190;19.178;2023-04-24T01:49:26;97720.52;;;9.96;60.38
41102;BME280;26845;50.190;19.178;2023-04-24T01:52:31;97722.33;;;9.83;60.29
41102;BME280;26845;50.190;19.178;2023-04-24T01:55:37;97715.69;;;9.81;60.52
41102;BME280;26845;50.190;19.178;2023-04-24T01:58:43;97716.63;;;9.79;60.50
41102;BME280;26845;50.190;19.178;2023-04-24T02:01:51;97713.89;;;9.72;60.69
41102;BME280;26845;50.190;19.178;2023-04-24T02:04:54;97715.92;;;9.69;60.80
41102;BME280;26845;50.190;19.178;2023-04-24T02:08:03;97713.42;;;9.66;60.89
41102;BME280;26845;50.190;19.178;2023-04-24T02:11:06;97712.95;;;9.57;60.94
41102;BME280;26845;50.190;19.178;2023-04-24T02:14:12;97714.11;;;9.53;61.12
41102;BME280;26845;50.190;19.178;2023-04-24T02:17:17;97706.10;;;9.49;61.26
41102;BME280;26845;50.190;19.178;2023-04-24T02:20:23;97707.63;;;9.43;61.28
41102;BME280;26845;50.190;19.178;2023-04-24T02:23:29;97699.50;;;9.34;61.47
41102;BME280;26845;50.190;19.178;2023-04-24T02:26:35;97699.58;;;9.26;61.51
41102;BME280;26845;50.190;19.178;2023-04-24T02:29:41;97695.52;;;9.15;61.38
41102;BME280;26845;50.190;19.178;2023-04-24T02:32:47;97691.02;;;9.08;61.64
41102;BME280;26845;50.190;19.178;2023-04-24T02:35:52;97688.23;;;9.06;61.70
41102;BME280;26845;50.190;19.178;2023-04-24T02:38:58;97687.68;;;8.96;61.72
41102;BME280;26845;50.190;19.178;2023-04-24T02:42:04;97684.23;;;8.88;61.65
41102;BME280;26845;50.190;19.178;2023-04-24T02:45:10;97685.41;;;8.89;61.60
41102;BME280;26845;50.190;19.178;2023-04-24T02:48:15;97681.80;;;8.86;61.78
41102;BME280;26845;50.190;19.178;2023-04-24T02:51:21;97686.84;;;8.85;62.05
41102;BME280;26845;50.190;19.178;2023-04-24T02:54:27;97683.86;;;8.86;62.25
41102;BME280;26845;50.190;19.178;2023-04-24T02:57:33;97687.67;;;8.88;62.22
41102;BME280;26845;50.190;19.178;2023-04-24T03:00:39;97682.71;;;8.91;62.59
41102;BME280;26845;50.190;19.178;2023-04-24T03:03:45;97684.46;;;8.87;62.50
41102;BME280;26845;50.190;19.178;2023-04-24T03:06:51;97683.60;;;8.85;62.13
41102;BME280;26845;50.190;19.178;2023-04-24T03:09:56;97677.73;;;8.77;62.10
41102;BME280;26845;50.190;19.178;2023-04-24T03:13:02;97684.83;;;8.73;62.36
41102;BME280;26845;50.190;19.178;2023-04-24T03:16:08;97678.05;;;8.73;62.42
41102;BME280;26845;50.190;19.178;2023-04-24T03:19:14;97683.73;;;8.77;62.69
41102;BME280;26845;50.190;19.178;2023-04-24T03:22:19;97689.22;;;8.83;62.58
41102;BME280;26845;50.190;19.178;2023-04-24T03:25:25;97684.42;;;8.92;62.65
41102;BME280;26845;50.190;19.178;2023-04-24T03:28:31;97682.84;;;8.97;62.70
41102;BME280;26845;50.190;19.178;2023-04-24T03:31:37;97678.02;;;9.06;62.59
41102;BME280;26845;50.190;19.178;2023-04-24T03:34:42;97677.41;;;9.11;62.40
41102;BME280;26845;50.190;19.178;2023-04-24T03:37:48;97677.98;;;9.09;62.54
41102;BME280;26845;50.190;19.178;2023-04-24T03:40:54;97678.92;;;9.13;62.51
41102;BME280;26845;50.190;19.178;2023-04-24T03:44:00;97683.42;;;9.14;62.52
41102;BME280;26845;50.190;19.178;2023-04-24T03:47:06;97688.45;;;9.19;63.02
41102;BME280;26845;50.190;19.178;2023-04-24T03:50:12;97682.45;;;9.19;63.06
41102;BME280;26845;50.190;19.178;2023-04-24T03:53:17;97683.46;;;9.19;63.23
41102;BME280;26845;50.190;19.178;2023-04-24T03:56:23;97687.52;;;9.17;63.29
41102;BME280;26845;50.190;19.178;2023-04-24T03:59:29;97684.27;;;9.22;63.44
41102;BME280;26845;50.190;19.178;2023-04-24T04:02:35;97683.55;;;9.33;63.60
41102;BME280;26845;50.190;19.178;2023-04-24T04:05:41;97684.85;;;9.46;63.56
41102;BME280;26845;50.190;19.178;2023-04-24T04:08:47;97682.13;;;9.50;63.34
41102;BME280;26845;50.190;19.178;2023-04-24T04:11:52;97678.67;;;9.48;63.23
41102;BME280;26845;50.190;19.178;2023-04-24T04:14:58;97680.67;;;9.49;63.40
41102;BME280;26845;50.190;19.178;2023-04-24T04:18:04;97682.58;;;9.55;63.37
41102;BME280;26845;50.190;19.178;2023-04-24T04:21:10;97676.77;;;9.60;63.23
41102;BME280;26845;50.190;19.178;2023-04-24T04:24:16;97679.64;;;9.63;63.20
41102;BME280;26845;50.190;19.178;2023-04-24T04:27:22;97672.85;;;9.64;63.15
41102;BME280;26845;50.190;19.178;2023-04-24T04:30:27;97672.96;;;9.71;63.09
41102;BME280;26845;50.190;19.178;2023-04-24T04:33:33;97671.66;;;9.81;62.96
41102;BME280;26845;50.190;19.178;2023-04-24T04:36:40;97668.58;;;9.88;62.95
41102;BME280;26845;50.190;19.178;2023-04-24T04:39:45;97673.00;;;9.95;62.83
41102;BME280;26845;50.190;19.178;2023-04-24T04:42:54;97666.23;;;10.02;62.53
41102;BME280;26845;50.190;19.178;2023-04-24T04:45:59;97672.26;;;10.04;62.61
41102;BME280;26845;50.190;19.178;2023-04-24T04:49:05;97669.36;;;10.00;62.61
41102;BME280;26845;50.190;19.178;2023-04-24T04:52:11;97670.96;;;10.03;63.17
41102;BME280;26845;50.190;19.178;2023-04-24T04:55:17;97667.08;;;10.09;63.20
41102;BME280;26845;50.190;19.178;2023-04-24T04:58:22;97662.83;;;10.17;63.22
41102;BME280;26845;50.190;19.178;2023-04-24T05:01:28;97663.29;;;10.25;62.85
41102;BME280;26845;50.190;19.178;2023-04-24T05:04:34;97670.83;;;10.38;62.88
41102;BME280;26845;50.190;19.178;2023-04-24T05:07:39;97664.13;;;10.53;63.20
41102;BME280;26845;50.190;19.178;2023-04-24T05:10:45;97665.64;;;10.70;62.51
41102;BME280;26845;50.190;19.178;2023-04-24T05:13:51;97663.95;;;10.86;62.41
41102;BME280;26845;50.190;19.178;2023-04-24T05:16:56;97668.66;;;11.03;62.36
41102;BME280;26845;50.190;19.178;2023-04-24T05:20:03;97669.60;;;11.23;63.31
41102;BME280;26845;50.190;19.178;2023-04-24T05:23:08;97667.23;;;11.40;63.32
41102;BME280;26845;50.190;19.178;2023-04-24T05:26:14;97664.33;;;11.55;62.93
41102;BME280;26845;50.190;19.178;2023-04-24T05:29:20;97666.94;;;11.81;62.77
41102;BME280;26845;50.190;19.178;2023-04-24T05:32:26;97672.04;;;12.13;62.78
41102;BME280;26845;50.190;19.178;2023-04-24T05:35:32;97669.58;;;12.46;62.33
41102;BME280;26845;50.190;19.178;2023-04-24T05:38:37;97668.00;;;12.76;62.15
41102;BME280;26845;50.190;19.178;2023-04-24T05:41:43;97665.71;;;13.08;62.24
41102;BME280;26845;50.190;19.178;2023-04-24T05:44:49;97660.05;;;13.44;61.87
41102;BME280;26845;50.190;19.178;2023-04-24T05:47:55;97662.85;;;13.73;61.99
41102;BME280;26845;50.190;19.178;2023-04-24T05:51:00;97655.56;;;13.98;61.52
41102;BME280;26845;50.190;19.178;2023-04-24T05:54:06;97655.80;;;14.22;60.79
41102;BME280;26845;50.190;19.178;2023-04-24T05:57:11;97653.96;;;14.46;59.00
41102;BME280;26845;50.190;19.178;2023-04-24T06:00:16;97648.61;;;14.71;59.58
41102;BME280;26845;50.190;19.178;2023-04-24T06:03:22;97647.78;;;14.97;58.61
41102;BME280;26845;50.190;19.178;2023-04-24T06:06:28;97645.83;;;15.20;58.53
41102;BME280;26845;50.190;19.178;2023-04-24T06:09:34;97641.33;;;15.45;58.94
41102;BME280;26845;50.190;19.178;2023-04-24T06:12:39;97640.57;;;15.73;58.66
41102;BME280;26845;50.190;19.178;2023-04-24T06:15:47;97641.17;;;15.94;57.44
41102;BME280;26845;50.190;19.178;2023-04-24T06:18:53;97640.52;;;16.13;56.15
41102;BME280;26845;50.190;19.178;2023-04-24T06:21:39;97638.13;;;16.27;55.65
41102;BME280;26845;50.190;19.178;2023-04-24T06:24:45;97634.20;;;16.40;54.81
41102;BME280;26845;50.190;19.178;2023-04-24T06:27:31;97634.31;;;16.51;54.49
41102;BME280;26845;50.190;19.178;2023-04-24T06:30:37;97633.73;;;16.67;54.36
41102;BME280;26845;50.190;19.178;2023-04-24T06:33:43;97626.79;;;16.84;54.01
41102;BME280;26845;50.190;19.178;2023-04-24T06:36:30;97627.85;;;17.01;54.57
41102;BME280;26845;50.190;19.178;2023-04-24T06:39:36;97627.63;;;17.25;54.20
41102;BME280;26845;50.190;19.178;2023-04-24T06:42:41;97623.91;;;17.45;53.22
41102;BME280;26845;50.190;19.178;2023-04-24T06:45:47;97625.38;;;17.71;53.03
41102;BME280;26845;50.190;19.178;2023-04-24T06:48:52;97613.70;;;17.93;52.27
41102;BME280;26845;50.190;19.178;2023-04-24T06:51:57;97620.23;;;18.01;51.14
41102;BME280;26845;50.190;19.178;2023-04-24T06:54:27;97623.21;;;18.04;50.57
41102;BME280;26845;50.190;19.178;2023-04-24T06:57:33;97617.34;;;18.20;50.53
41102;BME280;26845;50.190;19.178;2023-04-24T07:00:20;97616.55;;;18.46;49.74
41102;BME280;26845;50.190;19.178;2023-04-24T07:03:25;97612.41;;;18.69;49.64
41102;BME280;26845;50.190;19.178;2023-04-24T07:06:18;97611.58;;;18.88;48.68
41102;BME280;26845;50.190;19.178;2023-04-24T07:09:24;97611.34;;;19.08;48.36
41102;BME280;26845;50.190;19.178;2023-04-24T07:12:00;97602.39;;;19.28;47.91
41102;BME280;26845;50.190;19.178;2023-04-24T07:14:47;97599.95;;;19.43;47.29
41102;BME280;26845;50.190;19.178;2023-04-24T07:17:52;97598.40;;;19.59;47.14
41102;BME280;26845;50.190;19.178;2023-04-24T07:20:39;97598.33;;;19.59;45.81
41102;BME280;26845;50.190;19.178;2023-04-24T07:23:44;97600.17;;;19.58;45.83
41102;BME280;26845;50.190;19.178;2023-04-24T07:26:33;97593.39;;;19.80;44.66
41102;BME280;26845;50.190;19.178;2023-04-24T07:29:19;97598.41;;;19.94;45.51
41102;BME280;26845;50.190;19.178;2023-04-24T07:32:08;97594.66;;;20.21;45.14
41102;BME280;26845;50.190;19.178;2023-04-24T07:35:14;97593.10;;;20.48;44.28
41102;BME280;26845;50.190;19.178;2023-04-24T07:38:00;97592.55;;;20.59;43.08
41102;BME280;26845;50.190;19.178;2023-04-24T07:41:05;97592.25;;;20.67;43.11
41102;BME280;26845;50.190;19.178;2023-04-24T07:43:51;97589.73;;;20.92;43.40
41102;BME280;26845;50.190;19.178;2023-04-24T07:46:57;97588.62;;;21.19;43.26
41102;BME280;26845;50.190;19.178;2023-04-24T07:49:23;97588.64;;;21.36;40.74
41102;BME280;26845;50.190;19.178;2023-04-24T07:52:16;97587.59;;;21.09;41.23
41102;BME280;26845;50.190;19.178;2023-04-24T07:54:44;97583.98;;;21.14;41.30
41102;BME280;26845;50.190;19.178;2023-04-24T07:57:10;97580.60;;;21.42;41.72
41102;BME280;26845;50.190;19.178;2023-04-24T08:00:16;97576.52;;;21.78;41.42
41102;BME280;26845;50.190;19.178;2023-04-24T08:03:21;97576.91;;;21.99;41.44
41102;BME280;26845;50.190;19.178;2023-04-24T08:06:27;97575.44;;;22.27;40.48
41102;BME280;26845;50.190;19.178;2023-04-24T08:09:33;97576.48;;;22.21;39.96
41102;BME280;26845;50.190;19.178;2023-04-24T08:12:39;97568.31;;;22.01;39.79
41102;BME280;26845;50.190;19.178;2023-04-24T08:15:45;97568.86;;;21.91;39.80
41102;BME280;26845;50.190;19.178;2023-04-24T08:18:50;97572.34;;;22.03;39.65
41102;BME280;26845;50.190;19.178;2023-04-24T08:21:56;97570.95;;;21.97;38.71
41102;BME280;26845;50.190;19.178;2023-04-24T08:25:02;97566.36;;;21.77;38.28
41102;BME280;26845;50.190;19.178;2023-04-24T08:28:08;97566.08;;;21.51;38.26
41102;BME280;26845;50.190;19.178;2023-04-24T08:31:14;97565.17;;;21.43;38.66
41102;BME280;26845;50.190;19.178;2023-04-24T08:34:20;97566.47;;;21.45;37.62
41102;BME280;26845;50.190;19.178;2023-04-24T08:37:26;97566.69;;;21.27;36.94
41102;BME280;26845;50.190;19.178;2023-04-24T08:40:32;97563.50;;;21.13;37.34
41102;BME280;26845;50.190;19.178;2023-04-24T08:43:37;97565.89;;;21.07;35.63
41102;BME280;26845;50.190;19.178;2023-04-24T08:46:43;97565.19;;;20.73;34.49
41102;BME280;26845;50.190;19.178;2023-04-24T08:49:49;97565.52;;;20.61;36.37
41102;BME280;26845;50.190;19.178;2023-04-24T08:52:54;97564.23;;;20.74;34.96
41102;BME280;26845;50.190;19.178;2023-04-24T08:56:00;97560.27;;;20.72;36.14
41102;BME280;26845;50.190;19.178;2023-04-24T08:59:06;97566.92;;;20.89;35.20
41102;BME280;26845;50.190;19.178;2023-04-24T09:02:12;97559.04;;;20.98;35.01
41102;BME280;26845;50.190;19.178;2023-04-24T09:05:18;97558.72;;;21.16;35.81
41102;BME280;26845;50.190;19.178;2023-04-24T09:08:24;97553.56;;;21.56;35.52
41102;BME280;26845;50.190;19.178;2023-04-24T09:11:30;97552.89;;;21.95;36.00
41102;BME280;26845;50.190;19.178;2023-04-24T09:14:35;97550.50;;;22.18;34.77
41102;BME280;26845;50.190;19.178;2023-04-24T09:17:41;97548.59;;;21.95;34.91
41102;BME280;26845;50.190;19.178;2023-04-24T09:20:56;97547.39;;;21.74;33.80
41102;BME280;26845;50.190;19.178;2023-04-24T09:24:04;97544.36;;;21.64;34.65
41102;BME280;26845;50.190;19.178;2023-04-24T09:27:08;97548.01;;;21.63;35.11
41102;BME280;26845;50.190;19.178;2023-04-24T09:30:14;97544.89;;;21.60;34.21
41102;BME280;26845;50.190;19.178;2023-04-24T09:33:19;97541.58;;;21.45;34.54
41102;BME280;26845;50.190;19.178;2023-04-24T09:36:29;97540.15;;;21.64;35.25
41102;BME280;26845;50.190;19.178;2023-04-24T09:39:34;97529.89;;;21.98;35.08
41102;BME280;26845;50.190;19.178;2023-04-24T09:42:44;97532.04;;;22.14;34.83
41102;BME280;26845;50.190;19.178;2023-04-24T09:45:49;97528.69;;;22.34;34.21
41102;BME280;26845;50.190;19.178;2023-04-24T09:48:55;97528.44;;;22.47;34.13
41102;BME280;26845;50.190;19.178;2023-04-24T09:52:08;97523.05;;;22.71;34.17
41102;BME280;26845;50.190;19.178;2023-04-24T09:55:16;97514.76;;;23.08;34.64
41102;BME280;26845;50.190;19.178;2023-04-24T09:58:29;97513.08;;;23.26;34.05
41102;BME280;26845;50.190;19.178;2023-04-24T10:01:35;97514.42;;;23.13;33.18
41102;BME280;26845;50.190;19.178;2023-04-24T10:04:41;97509.09;;;23.09;34.15
41102;BME280;26845;50.190;19.178;2023-04-24T10:07:47;97511.14;;;23.38;34.50
41102;BME280;26845;50.190;19.178;2023-04-24T10:10:52;97507.40;;;23.59;34.10
41102;BME280;26845;50.190;19.178;2023-04-24T10:13:58;97505.89;;;23.62;34.07
41102;BME280;26845;50.190;19.178;2023-04-24T10:17:04;97508.36;;;23.65;34.02
41102;BME280;26845;50.190;19.178;2023-04-24T10:20:10;97507.36;;;23.70;33.69
41102;BME280;26845;50.190;19.178;2023-04-24T10:23:15;97502.89;;;23.72;33.52
41102;BME280;26845;50.190;19.178;2023-04-24T10:26:21;97497.33;;;23.75;33.88
41102;BME280;26845;50.190;19.178;2023-04-24T10:29:27;97501.89;;;23.77;33.80
41102;BME280;26845;50.190;19.178;2023-04-24T10:32:33;97503.87;;;23.28;32.40
41102;BME280;26845;50.190;19.178;2023-04-24T10:35:44;97507.33;;;22.62;32.49
41102;BME280;26845;50.190;19.178;2023-04-24T10:38:47;97506.02;;;22.19;33.25
41102;BME280;26845;50.190;19.178;2023-04-24T10:41:53;97500.15;;;22.04;33.30
41102;BME280;26845;50.190;19.178;2023-04-24T10:44:59;97509.45;;;21.78;31.80
41102;BME280;26845;50.190;19.178;2023-04-24T10:48:05;97509.85;;;21.33;32.78
41102;BME280;26845;50.190;19.178;2023-04-24T10:51:11;97504.00;;;21.22;33.10
41102;BME280;26845;50.190;19.178;2023-04-24T10:54:35;97500.06;;;21.04;32.93
41102;BME280;26845;50.190;19.178;2023-04-24T10:57:41;97502.36;;;20.82;32.97
41102;BME280;26845;50.190;19.178;2023-04-24T11:00:54;97503.63;;;20.55;33.48
41102;BME280;26845;50.190;19.178;2023-04-24T11:03:55;97502.59;;;20.39;33.35
41102;BME280;26845;50.190;19.178;2023-04-24T11:06:57;97507.31;;;20.31;34.09
41102;BME280;26845;50.190;19.178;2023-04-24T11:10:03;97516.63;;;20.11;34.50
41102;BME280;26845;50.190;19.178;2023-04-24T11:13:09;97512.31;;;19.62;34.89
41102;BME280;26845;50.190;19.178;2023-04-24T11:16:20;97512.11;;;19.22;35.60
41102;BME280;26845;50.190;19.178;2023-04-24T11:19:27;97516.90;;;18.92;36.91
41102;BME280;26845;50.190;19.178;2023-04-24T11:22:33;97521.56;;;18.74;36.22
41102;BME280;26845;50.190;19.178;2023-04-24T11:25:39;97522.35;;;18.62;37.07
41102;BME280;26845;50.190;19.178;2023-04-24T11:28:48;97514.08;;;18.50;37.77
41102;BME280;26845;50.190;19.178;2023-04-24T11:31:53;97519.45;;;18.40;37.89
41102;BME280;26845;50.190;19.178;2023-04-24T11:34:52;97516.55;;;18.41;38.15
41102;BME280;26845;50.190;19.178;2023-04-24T11:37:56;97517.77;;;18.45;38.64
41102;BME280;26845;50.190;19.178;2023-04-24T11:41:02;97516.89;;;18.53;38.88
41102;BME280;26845;50.190;19.178;2023-04-24T11:44:09;97520.11;;;18.61;38.91
41102;BME280;26845;50.190;19.178;2023-04-24T11:47:14;97512.26;;;18.75;38.59
41102;BME280;26845;50.190;19.178;2023-04-24T11:50:21;97518.44;;;18.87;38.72
41102;BME280;26845;50.190;19.178;2023-04-24T11:53:25;97511.75;;;19.00;38.70
41102;BME280;26845;50.190;19.178;2023-04-24T11:56:31;97513.91;;;19.10;38.40
41102;BME280;26845;50.190;19.178;2023-04-24T11:59:37;97509.55;;;19.18;38.38
41102;BME280;26845;50.190;19.178;2023-04-24T12:02:43;97514.09;;;19.40;37.84
41102;BME280;26845;50.190;19.178;2023-04-24T12:05:49;97522.29;;;19.74;38.00
41102;BME280;26845;50.190;19.178;2023-04-24T12:08:55;97510.48;;;19.64;37.49
41102;BME280;26845;50.190;19.178;2023-04-24T12:12:00;97526.00;;;19.40;38.16
41102;BME280;26845;50.190;19.178;2023-04-24T12:15:07;97519.14;;;19.04;38.29
41102;BME280;26845;50.190;19.178;2023-04-24T12:18:12;97519.23;;;18.98;38.86
41102;BME280;26845;50.190;19.178;2023-04-24T12:21:21;97521.73;;;19.02;39.47
41102;BME280;26845;50.190;19.178;2023-04-24T12:24:26;97519.80;;;18.93;38.82
41102;BME280;26845;50.190;19.178;2023-04-24T12:27:00;97518.92;;;18.85;39.28
41102;BME280;26845;50.190;19.178;2023-04-24T12:30:02;97515.55;;;18.75;39.73
41102;BME280;26845;50.190;19.178;2023-04-24T12:33:01;97511.02;;;18.62;40.44
41102;BME280;26845;50.190;19.178;2023-04-24T12:35:56;97506.09;;;18.32;40.95
41102;BME280;26845;50.190;19.178;2023-04-24T12:38:35;97513.38;;;18.17;41.69
41102;BME280;26845;50.190;19.178;2023-04-24T12:41:09;97507.04;;;18.14;41.90
41102;BME280;26845;50.190;19.178;2023-04-24T12:43:52;97519.93;;;18.01;41.55
41102;BME280;26845;50.190;19.178;2023-04-24T12:46:30;97517.16;;;17.90;41.53
41102;BME280;26845;50.190;19.178;2023-04-24T12:49:36;97518.52;;;17.93;42.25
41102;BME280;26845;50.190;19.178;2023-04-24T12:52:42;97525.44;;;17.76;42.17
41102;BME280;26845;50.190;19.178;2023-04-24T12:55:48;97529.75;;;17.54;42.87
41102;BME280;26845;50.190;19.178;2023-04-24T12:58:54;97528.33;;;17.29;43.45
41102;BME280;26845;50.190;19.178;2023-04-24T13:01:59;97524.58;;;17.19;44.30
41102;BME280;26845;50.190;19.178;2023-04-24T13:04:59;97519.98;;;17.16;44.13
41102;BME280;26845;50.190;19.178;2023-04-24T13:08:05;97522.19;;;17.08;44.59
41102;BME280;26845;50.190;19.178;2023-04-24T13:11:10;97520.84;;;17.09;44.10
41102;BME280;26845;50.190;19.178;2023-04-24T13:14:16;97511.73;;;17.15;44.66
41102;BME280;26845;50.190;19.178;2023-04-24T13:17:22;97511.30;;;17.09;45.46
41102;BME280;26845;50.190;19.178;2023-04-24T13:20:28;97513.35;;;16.92;45.85
41102;BME280;26845;50.190;19.178;2023-04-24T13:23:34;97504.14;;;16.81;46.04
41102;BME280;26845;50.190;19.178;2023-04-24T13:26:40;97505.13;;;16.76;45.84
41102;BME280;26845;50.190;19.178;2023-04-24T13:29:45;97504.42;;;16.72;46.05
41102;BME280;26845;50.190;19.178;2023-04-24T13:32:51;97504.27;;;16.70;46.31
41102;BME280;26845;50.190;19.178;2023-04-24T13:35:57;97501.73;;;16.64;47.59
41102;BME280;26845;50.190;19.178;2023-04-24T13:39:03;97497.56;;;16.46;48.89
41102;BME280;26845;50.190;19.178;2023-04-24T13:42:09;97503.94;;;16.24;48.17
41102;BME280;26845;50.190;19.178;2023-04-24T13:45:18;97505.52;;;16.13;49.17
41102;BME280;26845;50.190;19.178;2023-04-24T13:48:24;97502.80;;;16.05;48.90
41102;BME280;26845;50.190;19.178;2023-04-24T13:51:29;97503.27;;;16.05;48.84
41102;BME280;26845;50.190;19.178;2023-04-24T13:54:41;97502.39;;;16.04;49.09
41102;BME280;26845;50.190;19.178;2023-04-24T13:57:58;97498.60;;;15.93;50.33
41102;BME280;26845;50.190;19.178;2023-04-24T14:01:04;97503.49;;;15.81;49.95
41102;BME280;26845;50.190;19.178;2023-04-24T14:04:10;97497.85;;;15.65;51.32
41102;BME280;26845;50.190;19.178;2023-04-24T14:07:20;97496.61;;;15.49;52.61
41102;BME280;26845;50.190;19.178;2023-04-24T14:10:28;97504.19;;;15.42;53.16
41102;BME280;26845;50.190;19.178;2023-04-24T14:13:34;97501.52;;;15.32;53.97
41102;BME280;26845;50.190;19.178;2023-04-24T14:16:40;97500.45;;;15.19;54.51
41102;BME280;26845;50.190;19.178;2023-04-24T14:19:47;97501.05;;;15.11;54.19
41102;BME280;26845;50.190;19.178;2023-04-24T14:22:52;97509.35;;;15.09;54.30
41102;BME280;26845;50.190;19.178;2023-04-24T14:25:58;97501.46;;;15.05;55.17
41102;BME280;26845;50.190;19.178;2023-04-24T14:29:04;97498.92;;;15.00;54.65
41102;BME280;26845;50.190;19.178;2023-04-24T14:32:11;97498.88;;;14.97;54.50
41102;BME280;26845;50.190;19.178;2023-04-24T14:35:17;97502.55;;;14.97;55.04
41102;BME280;26845;50.190;19.178;2023-04-24T14:38:29;97499.36;;;14.98;54.77
41102;BME280;26845;50.190;19.178;2023-04-24T14:41:34;97497.42;;;14.97;54.43
41102;BME280;26845;50.190;19.178;2023-04-24T14:44:41;97506.60;;;15.01;54.70
41102;BME280;26845;50.190;19.178;2023-04-24T14:47:47;97503.44;;;15.04;54.93
41102;BME280;26845;50.190;19.178;2023-04-24T14:50:53;97499.02;;;15.01;55.34
41102;BME280;26845;50.190;19.178;2023-04-24T14:53:59;97504.20;;;14.95;54.69
41102;BME280;26845;50.190;19.178;2023-04-24T14:57:05;97507.23;;;14.95;54.95
41102;BME280;26845;50.190;19.178;2023-04-24T15:00:13;97506.40;;;14.98;55.05
41102;BME280;26845;50.190;19.178;2023-04-24T15:03:19;97510.24;;;15.04;54.62
41102;BME280;26845;50.190;19.178;2023-04-24T15:06:25;97506.11;;;15.12;54.71
41102;BME280;26845;50.190;19.178;2023-04-24T15:09:31;97509.63;;;15.12;54.87
41102;BME280;26845;50.190;19.178;2023-04-24T15:12:38;97506.53;;;15.07;55.66
41102;BME280;26845;50.190;19.178;2023-04-24T15:15:46;97503.00;;;15.01;54.95
41102;BME280;26845;50.190;19.178;2023-04-24T15:18:50;97502.76;;;15.11;55.42
41102;BME280;26845;50.190;19.178;2023-04-24T15:31:46;97501.00;;;14.95;56.80
41102;BME280;26845;50.190;19.178;2023-04-24T15:34:52;97495.96;;;14.89;56.14
41102;BME280;26845;50.190;19.178;2023-04-24T15:37:57;97494.14;;;14.91;56.57
41102;BME280;26845;50.190;19.178;2023-04-24T15:41:05;97496.77;;;14.84;57.20
41102;BME280;26845;50.190;19.178;2023-04-24T15:44:11;97500.88;;;14.76;56.72
41102;BME280;26845;50.190;19.178;2023-04-24T15:47:17;97498.45;;;14.79;56.79
41102;BME280;26845;50.190;19.178;2023-04-24T15:50:23;97501.36;;;14.76;57.00
41102;BME280;26845;50.190;19.178;2023-04-24T15:53:29;97497.20;;;14.71;56.85
41102;BME280;26845;50.190;19.178;2023-04-24T15:56:35;97501.52;;;14.74;57.01
41102;BME280;26845;50.190;19.178;2023-04-24T15:59:42;97501.33;;;14.74;57.32
41102;BME280;26845;50.190;19.178;2023-04-24T16:02:47;97500.55;;;14.76;57.32
41102;BME280;26845;50.190;19.178;2023-04-24T16:10:32;97499.65;;;14.91;57.32
41102;BME280;26845;50.190;19.178;2023-04-24T16:13:39;97504.40;;;14.87;57.56
41102;BME280;26845;50.190;19.178;2023-04-24T16:16:45;97503.11;;;14.87;57.58
41102;BME280;26845;50.190;19.178;2023-04-24T16:19:51;97499.87;;;14.84;57.33